Home   Weather   Medina Sidonia   Past weeks
Flag for Spain

Past Weather in Medina Sidonia, Cádiz, Spain — Yesterday and Last 2 Weeks

Currently: 41 °F. Sunny. (Weather station: Rota Airport, Spain). See more current weather

Past Weather in Medina Sidonia — Graph

°F

Medina Sidonia Temperature Yesterday

Maximum temperature yesterday: 61 °F (at 2:30 pm)
Minimum temperature yesterday: 39 °F (at 7:00 am)
Average temperature yesterday: 50 °F

High & Low Weather Summary for the Past Weeks

 TemperatureHumidityPressure
High64 °F (Jan 11, 6:00 pm)100% (Jan 7, 9:00 am)30.48 "Hg (Jan 7, 9:00 am)
Low37 °F (Jan 9, 9:00 am)48% (Jan 13, 4:00 pm)30.09 "Hg (Jan 11, 2:30 am)
Average51 °F77%30.30 "Hg
* Reported Jan 7 9:00 am — Jan 22 9:00 am, Medina Sidonia. Weather by CustomWeather, © 2022

Note: Actual official high and low records may vary slightly from our data, if they occured in-between our weather recording intervals... More about our weather records

Medina Sidonia Weather History for the Previous 24 Hours

Scroll right to see more
 ConditionsComfort  
Time TempWeatherWind HumidityBarometerVisibility
9:00 am
Sat, Jan 22
41 °FSunny.9 mph81%30.24 "Hg10 mi
8:30 am41 °FClear.10 mph87%30.21 "Hg10 mi
8:00 am41 °FClear.9 mph87%30.21 "Hg10 mi
7:30 am41 °FClear.10 mph87%30.21 "Hg10 mi
7:00 am41 °FClear.12 mph87%30.21 "Hg10 mi
6:30 am41 °FClear.10 mph87%30.21 "Hg10 mi
6:00 am41 °FClear.10 mph87%30.21 "Hg10 mi
5:30 am43 °FClear.9 mph81%30.21 "Hg10 mi
5:00 am43 °FClear.9 mph81%30.21 "Hg10 mi
4:30 am45 °FClear.10 mph76%30.21 "Hg10 mi
4:00 am48 °FClear.9 mph71%30.21 "Hg10 mi
3:30 am48 °FPassing clouds.8 mph76%30.21 "HgN/A
3:00 am50 °FClear.12 mph76%30.21 "Hg10 mi
2:30 am52 °FClear.15 mph77%30.21 "Hg10 mi
2:00 am50 °FClear.12 mph76%30.21 "Hg10 mi
1:30 am50 °FClear.10 mph76%30.21 "Hg10 mi
12:30 am52 °FPassing clouds.12 mph77%30.21 "HgN/A
12:00 am50 °FPassing clouds.9 mph76%30.21 "HgN/A
11:30 pm
Fri, Jan 21
48 °FClear.7 mph82%30.21 "Hg10 mi
11:00 pm50 °FPassing clouds.7 mph76%30.21 "HgN/A
10:30 pm52 °FClear.8 mph72%30.21 "Hg10 mi
10:00 pm50 °FClear.8 mph76%30.21 "Hg10 mi
9:30 pm52 °FClear.8 mph77%30.21 "Hg10 mi
9:00 pm52 °FClear.6 mph77%30.18 "Hg10 mi
8:30 pm52 °FClear.6 mph72%30.18 "Hg10 mi
8:00 pm55 °FClear.7 mph67%30.18 "Hg10 mi
7:30 pm57 °FPassing clouds.9 mph63%30.18 "HgN/A
6:30 pm59 °FPartly sunny.6 mph51%30.18 "HgN/A
6:00 pm59 °FPartly sunny.6 mph51%30.15 "HgN/A
5:30 pm61 °FScattered clouds.7 mph48%30.15 "HgN/A
5:00 pm61 °FPassing clouds.6 mph48%30.15 "HgN/A
4:30 pm61 °FScattered clouds.7 mph48%30.15 "HgN/A
4:00 pm61 °FScattered clouds.6 mph52%30.15 "HgN/A
3:30 pm61 °FPassing clouds.7 mph52%30.18 "HgN/A
3:00 pm61 °FSunny.6 mph52%30.18 "Hg10 mi
2:30 pm61 °FPassing clouds.7 mph48%30.18 "HgN/A
2:00 pm59 °FPassing clouds.7 mph55%30.18 "HgN/A
1:30 pm59 °FPassing clouds.8 mph55%30.21 "HgN/A
1:00 pm59 °FPassing clouds.7 mph55%30.24 "HgN/A
12:30 pm55 °FPassing clouds.8 mph63%30.24 "HgN/A
12:00 pm54 °FSunny.7 mph67%30.24 "Hg10 mi
11:30 am52 °FPassing clouds.7 mph72%30.24 "HgN/A
11:00 am48 °FSunny.7 mph76%30.24 "Hg10 mi
10:30 am46 °FSunny.6 mph82%30.24 "Hg10 mi
10:00 am43 °FPassing clouds.7 mph87%30.24 "HgN/A
Weather by CustomWeather, © 2022

See weather overview